Providence, North Carolina
Current Conditions -  °F | °C
As of 3:53 AM on Friday 28 Nov 2014 (Local Time) from KDAN Reporting Station
Few Clouds Few Clouds  
Wind Chill: 23°   Ceiling: Unl
Heat Index: 30°   Visibility: 10mi
Dew Point: 19°   Wind: 7mph
Humidity: 64%   Direction: 300°WNW
Pressure: 30.28"   Gusts: NA
Location:  36.51°N, 79.37°W
Report Text: KDAN 280853Z AUTO 30006KT 10SM FEW055 M01/M07 A3028 RMK AO2 SLP253 T10111072 50004
Loading
Personal Weather Stations






























Interactive Weather Map New forecast layout! Learn more

10-Day Weather Forecast

Advertisements
Track Severe Weather on mobile